Terminal Aerodrome Forecast
Issued by NWS

Current Version | Previous Version | Text Only | Print | Product List | Glossary On
Versions: 1 2 3 4 5 6 7 8 9 10 11 12 13 14 15 16 17 18 19 20
000
FTUS43 KGRR 291700
TAFAZO
TAF
KAZO 291738Z 2918/3018 17008KT P6SM -SHRA OVC045
     FM291930 16006KT P6SM BKN045
     FM300100 16004KT P6SM VCTS OVC040CB
     FM300700 18005KT P6SM -SHRA OVC035
     FM301200 20010KT P6SM BKN035
     FM301500 20011KT P6SM VCTS BKN035CB=

USA.gov is the U.S. government's official web portal to all federal, state and local government web resources and services.